1 月 21 日 (星期一) | 會員登記|會員中心
買賣區主頁 > 手錶 > 其它 (189)
所有物品 | 出售 | 徵求 排序 :  更新時間 | 刊登時間
 圖片 標題 價格 賣方/買方 瀏覽 更新時間
18mm 膠手錶帶HK$15Scroll-Lock221/01 16:00
Sell 98% new Seiko Kinetic Watch full sets with box and invoiceHK$1,800bikram8721/01 14:07
精工座枱世界時鐘HK$280mandc17421/01 13:45
 手錶上鍊盒HK$210oldmanpc99915021/01 13:25
I santi 化妝包包 梯形-12x 20cm. 全新HK$150Nw20137821/01 12:00
電子砣表HK$80Leo866668 14321/01 11:58
 (New in Box) René Mouris French Luxury Watch 腕錶 法國 50107RM3 日本計時HK$2,500Lovergal13921/01 11:18
Jaeger-LeCoultre 積家 錶盒 - 01HK$250wang972001902421/01 09:42
Tropic 20mm watch strap 合潛水錶 舊裝水鬼 錶帶 model no 1820HK$350wang972001902421/01 09:41
全新 100% New Piaget 伯爵 5 位 錶盒HK$500wang972001902221/01 09:41
 勞力士卡片皮套HK$35011003320721/01 07:47
全新 Seiko 車軚紋代用錶帶 (20mm)黑色連兩支針HK$70鄉麗麗18421/01 07:10
出售 TAG Heruer 木錶盒HK$100邵米琦4321/01 07:10
Seiko solar 2 【已完成】HK$1,450hangwan30121/01 04:24
 Apple Watch 3 42mm 吉盒1個連郵寄本港費用$65HK$60kinman1689021/01 02:02
Rolex 16600 Sea Dweller Tool KitHK$1,800perutz6020/01 21:35
 全新 Citizen 光動能藍牙功能手錶 BZ1001-86EHK$3,100JKPPP10920/01 21:17
99.9%New 原裝 SEIKO SBDX017 黑色膠錶帶HK$400irayman7120/01 15:01
 (減價急售)(全新+全球限量482隻)Nixon 48-20 chrono horizonHK$1,200XmXDestinyXmX5320/01 14:04
 (2019減價促銷)(全新)Nixon x Star Wars 死星系列 51-30 Star Wars Death Star BlackHK$700XmXDestinyXmX4620/01 14:04
 (全新)Nixon Patriot 45 MM All Dark BlueHK$600XmXDestinyXmX10920/01 14:03
 (全新)Nixon 48-20 Chrono 48 MM Polished Gunmetal / lumHK$600XmXDestinyXmX10720/01 14:03
原装 歐米茄 OMEGA OPERATING INSTRUCTIONS 書仔HK$40Victoreasonhung24320/01 13:08
GALAXY G-077ST手錶對講機 (—對) USB 充電, 旅行 行山 遠足 upto 7公里, 合法409頻免牌照HK$229qqwalkie4520/01 13:05
 全新TIMEX手錶 葵芳交收HK$300atmhk48120/01 13:04
全新 SEIKO SBDX014 原裝膠帶HK$680irayman5920/01 09:08
意大利真皮錶帶 22mm 全新啡紅色 合Omega Tudor Seiko Citizen Tissot HamiltonHK$120aa.fever34320/01 08:11
18mm 杏色 全新 尼龍面 真皮底 錶帶 合 DW Omega Tudor Seiko Citizen TissotHK$70hk42888620/01 08:09
全新 MIRAGE MN STRAP 22MM錶帶HK$370w_f_yeung14420/01 00:43
自動上鏈錶盒HK$438Caf74119/01 22:09